createdAt,value
2018-02-04T00:09:25.612Z,100579.96
2018-02-04T00:11:51.418Z,100582.69
2018-02-04T00:14:17.214Z,100580.55
2018-02-04T00:16:43.005Z,100590.29
2018-02-04T00:19:08.785Z,100592.40
2018-02-04T00:21:34.594Z,100592.69
2018-02-04T00:24:00.376Z,100599.91
2018-02-04T00:26:26.164Z,100598.28
2018-02-04T00:28:51.991Z,100613.03
2018-02-04T00:31:17.790Z,100600.65
2018-02-04T00:33:43.641Z,100613.14
2018-02-04T00:36:09.446Z,100606.89
2018-02-04T00:38:35.262Z,100609.47
2018-02-04T00:41:01.112Z,100608.19
2018-02-04T00:43:26.889Z,100610.78
2018-02-04T00:45:52.682Z,100609.18
2018-02-04T00:48:18.473Z,100610.55
2018-02-04T00:50:44.246Z,100613.25
2018-02-04T00:53:10.166Z,100623.64
2018-02-04T00:55:35.949Z,100619.02
2018-02-04T00:58:01.738Z,100621.05
2018-02-04T01:00:27.523Z,100623.56
2018-02-04T01:02:53.322Z,100623.92
2018-02-04T01:05:19.118Z,100624.02
2018-02-04T01:07:44.922Z,100629.20
2018-02-04T01:10:10.710Z,100627.95
2018-02-04T01:12:36.483Z,100632.03
2018-02-04T01:15:02.314Z,100631.20
2018-02-04T01:17:28.098Z,100633.73
2018-02-04T01:19:53.906Z,100627.40
2018-02-04T01:22:19.690Z,100638.09
2018-02-04T01:24:45.466Z,100643.17
2018-02-04T01:27:11.294Z,100631.52
2018-02-04T01:29:37.081Z,100636.10
2018-02-04T01:32:02.874Z,100642.07
2018-02-04T01:34:28.690Z,100643.80
2018-02-04T01:36:54.488Z,100643.42
2018-02-04T01:39:20.297Z,100644.63
2018-02-04T01:41:46.072Z,100652.12
2018-02-04T01:44:11.853Z,100647.05
2018-02-04T01:46:37.674Z,100646.69
2018-02-04T01:49:03.470Z,100645.53
2018-02-04T01:51:29.263Z,100645.05
2018-02-04T01:53:55.059Z,100650.98
2018-02-04T01:56:20.839Z,100649.97
2018-02-04T01:58:46.625Z,100648.28
2018-02-04T02:01:12.410Z,100651.36
2018-02-04T02:03:38.313Z,100652.81
2018-02-04T02:06:04.097Z,100656.98
2018-02-04T02:08:29.887Z,100653.75
2018-02-04T02:10:55.661Z,100650.31
2018-02-04T02:13:21.432Z,100659.34
2018-02-04T02:15:47.239Z,100662.97
2018-02-04T02:18:13.034Z,100666.19
2018-02-04T02:20:38.818Z,100662.45
2018-02-04T02:23:04.615Z,100654.44
2018-02-04T02:25:30.395Z,100671.08
2018-02-04T02:27:56.204Z,100672.64
2018-02-04T02:30:21.996Z,100676.92
2018-02-04T02:32:47.778Z,100680.44
2018-02-04T02:35:13.571Z,100681.70
2018-02-04T02:37:39.346Z,100685.22
2018-02-04T02:40:05.166Z,100689.47
2018-02-04T02:42:30.991Z,100694.20
2018-02-04T02:44:56.790Z,100699.28
2018-02-04T02:47:22.618Z,100709.25
2018-02-04T02:49:48.433Z,100709.13
2018-02-04T02:52:14.507Z,100716.14
2018-02-04T02:54:40.314Z,100712.98
2018-02-04T02:57:06.118Z,100712.93
2018-02-04T02:59:31.906Z,100721.66
2018-02-04T03:01:57.701Z,100713.84
2018-02-04T03:04:23.521Z,100724.75
2018-02-04T03:06:49.350Z,100725.45
2018-02-04T03:09:15.146Z,100729.07
2018-02-04T03:11:40.943Z,100733.95
2018-02-04T03:14:06.731Z,100732.14
2018-02-04T03:16:32.522Z,100733.38
2018-02-04T03:18:58.314Z,100736.96
2018-02-04T03:21:24.093Z,100748.75
2018-02-04T03:23:49.895Z,100755.10
2018-02-04T03:26:15.689Z,100758.98
2018-02-04T03:28:41.475Z,100755.32
2018-02-04T03:31:07.283Z,100763.73
2018-02-04T03:33:34.749Z,100770.11
2018-02-04T03:36:00.546Z,100776.45
2018-02-04T03:38:29.306Z,100778.16
2018-02-04T03:40:55.090Z,100786.00
2018-02-04T03:43:20.865Z,100792.24
2018-02-04T03:45:46.671Z,100801.92
2018-02-04T03:48:12.463Z,100805.81
2018-02-04T03:50:38.245Z,100812.56
2018-02-04T03:53:04.042Z,100813.31
2018-02-04T03:55:29.841Z,100826.81
2018-02-04T03:57:55.652Z,100823.23
2018-02-04T04:00:21.430Z,100827.07
2018-02-04T04:02:47.243Z,100824.56
2018-02-04T04:05:13.026Z,100827.06
2018-02-04T04:07:38.823Z,100834.03
2018-02-04T04:10:04.718Z,100828.80
2018-02-04T04:12:30.783Z,100838.41
2018-02-04T04:14:56.582Z,100851.72
2018-02-04T04:17:22.368Z,100856.42
2018-02-04T04:19:48.159Z,100860.39
2018-02-04T04:22:13.962Z,100865.92
2018-02-04T04:24:39.739Z,100876.20
2018-02-04T04:27:05.538Z,100878.75
2018-02-04T04:29:31.315Z,100873.19
2018-02-04T04:31:57.091Z,100884.53
2018-02-04T04:34:22.911Z,100888.17
2018-02-04T04:36:48.736Z,100896.94
2018-02-04T04:39:14.519Z,100904.48
2018-02-04T04:41:40.306Z,100913.35
2018-02-04T04:44:06.093Z,100927.10
2018-02-04T04:46:31.899Z,100934.38
2018-02-04T04:48:57.687Z,100937.25
2018-02-04T04:51:23.486Z,100939.84
2018-02-04T04:53:49.284Z,100937.05
2018-02-04T04:56:15.114Z,100949.14
2018-02-04T04:58:40.928Z,100952.66
2018-02-04T05:01:06.869Z,100956.47
2018-02-04T05:03:32.685Z,100970.02
2018-02-04T05:05:58.486Z,100975.77
2018-02-04T05:08:24.281Z,100980.87
2018-02-04T05:10:50.070Z,100976.03
2018-02-04T05:13:15.880Z,100984.16
2018-02-04T05:15:41.667Z,100989.70
2018-02-04T05:18:07.451Z,100988.19
2018-02-04T05:20:33.245Z,100995.20
2018-02-04T05:22:59.071Z,100990.28
2018-02-04T05:25:24.906Z,101001.34
2018-02-04T05:27:50.686Z,101007.21
2018-02-04T05:30:17.154Z,101010.94
2018-02-04T05:32:42.950Z,101012.03
2018-02-04T05:35:08.726Z,101016.84
2018-02-04T05:37:34.505Z,101014.94
2018-02-04T05:40:00.294Z,101023.24
2018-02-04T05:42:26.135Z,101032.94
2018-02-04T05:44:51.920Z,101048.08
2018-02-04T05:47:17.768Z,101054.36
2018-02-04T05:49:45.590Z,101058.91
2018-02-04T05:52:11.426Z,101060.82
2018-02-04T05:54:37.264Z,101065.13
2018-02-04T05:57:03.067Z,101080.30
2018-02-04T05:59:28.882Z,101082.11
2018-02-04T06:01:54.665Z,101098.32
2018-02-04T06:04:20.448Z,101092.93
2018-02-04T06:06:46.255Z,101102.13
2018-02-04T06:09:12.044Z,101111.61
2018-02-04T06:11:37.845Z,101120.97
2018-02-04T06:14:03.651Z,101122.94
2018-02-04T06:16:29.470Z,101125.95
2018-02-04T06:18:55.279Z,101135.17
2018-02-04T06:21:21.082Z,101144.94
2018-02-04T06:23:46.971Z,101151.27
2018-02-04T06:26:12.773Z,101160.09
2018-02-04T06:28:38.565Z,101168.75
2018-02-04T06:31:04.348Z,101166.43
2018-02-04T06:33:30.165Z,101170.68
2018-02-04T06:35:55.950Z,101173.03
2018-02-04T06:38:21.754Z,101179.92
2018-02-04T06:40:47.558Z,101192.69
2018-02-04T06:43:13.342Z,101194.89
2018-02-04T06:45:39.144Z,101194.26
2018-02-04T06:48:04.997Z,101200.08
2018-02-04T06:50:30.746Z,101212.25
2018-02-04T06:52:56.540Z,101222.11
2018-02-04T06:55:22.334Z,101223.42
2018-02-04T06:57:48.149Z,101223.42
2018-02-04T07:00:13.954Z,101228.00
2018-02-04T07:02:39.742Z,101239.01
2018-02-04T07:05:05.587Z,101252.64
2018-02-04T07:07:31.374Z,101257.06
2018-02-04T07:09:57.194Z,101267.87
2018-02-04T07:12:22.990Z,101272.02
2018-02-04T07:14:48.767Z,101273.33
2018-02-04T07:17:14.547Z,101280.55
2018-02-04T07:19:40.360Z,101279.05
2018-02-04T07:22:06.202Z,101289.70
2018-02-04T07:24:31.980Z,101282.41
2018-02-04T07:26:57.754Z,101285.41
2018-02-04T07:29:23.566Z,101290.94
2018-02-04T07:31:49.373Z,101294.39
2018-02-04T07:34:15.160Z,101296.41
2018-02-04T07:36:40.953Z,101308.47
2018-02-04T07:39:06.736Z,101312.52
2018-02-04T07:41:32.528Z,101319.48
2018-02-04T07:43:58.714Z,101327.59
2018-02-04T07:46:24.503Z,101331.54
2018-02-04T07:48:50.310Z,101327.67
2018-02-04T07:51:16.471Z,101336.30
2018-02-04T07:53:42.277Z,101340.88
2018-02-04T07:56:08.069Z,101335.70
2018-02-04T07:58:33.854Z,101343.42
2018-02-04T08:00:59.638Z,101339.91
2018-02-04T08:03:25.451Z,101352.41
2018-02-04T08:05:51.251Z,101360.61
2018-02-04T08:08:17.065Z,101356.19
2018-02-04T08:10:42.869Z,101359.92
2018-02-04T08:13:08.681Z,101364.50
2018-02-04T08:15:34.495Z,101354.44
2018-02-04T08:18:00.318Z,101376.31
2018-02-04T08:20:26.126Z,101384.47
2018-02-04T08:22:51.923Z,101380.44
2018-02-04T08:25:17.714Z,101385.52
2018-02-04T08:27:43.526Z,101383.05
2018-02-04T08:30:09.402Z,101389.41
2018-02-04T08:32:42.273Z,101392.48
2018-02-04T08:35:08.074Z,101392.45
2018-02-04T08:37:33.890Z,101397.78
2018-02-04T08:39:59.807Z,101394.45
2018-02-04T08:42:25.628Z,101394.00
2018-02-04T08:44:51.414Z,101403.33
2018-02-04T08:47:17.209Z,101404.47
2018-02-04T08:49:43.002Z,101404.36
2018-02-04T08:52:08.802Z,101414.00
2018-02-04T08:54:34.595Z,101412.28
2018-02-04T08:57:00.378Z,101420.42
2018-02-04T08:59:26.163Z,101422.64
2018-02-04T09:01:51.978Z,101425.23
2018-02-04T09:04:18.194Z,101425.41
2018-02-04T09:06:43.974Z,101426.87
2018-02-04T09:09:09.840Z,101430.81
2018-02-04T09:11:35.639Z,101436.11
2018-02-04T09:14:01.435Z,101433.55
2018-02-04T09:16:27.250Z,101444.46
2018-02-04T09:18:53.043Z,101445.17
2018-02-04T09:21:18.856Z,101450.47
2018-02-04T09:23:44.666Z,101446.75
2018-02-04T09:26:10.485Z,101449.86
2018-02-04T09:28:36.299Z,101454.07
2018-02-04T09:31:02.090Z,101454.86
2018-02-04T09:33:27.908Z,101457.00
2018-02-04T09:35:53.692Z,101451.01
2018-02-04T09:38:19.476Z,101464.39
2018-02-04T09:40:45.773Z,101474.37
2018-02-04T09:43:11.550Z,101470.50
2018-02-04T09:45:37.333Z,101467.58
2018-02-04T09:48:03.159Z,101479.56
2018-02-04T09:50:28.958Z,101483.19
2018-02-04T09:52:55.064Z,101485.75
2018-02-04T09:55:20.851Z,101483.93
2018-02-04T09:57:46.646Z,101489.41
2018-02-04T10:00:12.438Z,101496.02
2018-02-04T10:02:38.226Z,101507.22
2018-02-04T10:05:04.373Z,101501.05
2018-02-04T10:07:30.170Z,101503.50
2018-02-04T10:09:55.978Z,101499.72
2018-02-04T10:12:21.761Z,101503.08
2018-02-04T10:14:47.550Z,101509.67
2018-02-04T10:17:13.668Z,101509.77
2018-02-04T10:19:39.577Z,101520.88
2018-02-04T10:22:05.372Z,101519.62
2018-02-04T10:24:31.159Z,101521.52
2018-02-04T10:26:56.939Z,101523.63
2018-02-04T10:29:23.425Z,101521.23
2018-02-04T10:31:49.217Z,101534.55
2018-02-04T10:34:14.999Z,101532.00
2018-02-04T10:36:40.847Z,101528.73
2018-02-04T10:39:06.612Z,101531.83
2018-02-04T10:41:32.387Z,101536.22
2018-02-04T10:43:58.161Z,101537.20
2018-02-04T10:46:23.940Z,101536.85
2018-02-04T10:48:49.927Z,101540.39
2018-02-04T10:54:16.814Z,101537.65
2018-02-04T10:56:42.598Z,101545.41
2018-02-04T10:59:08.362Z,101552.88
2018-02-04T11:01:34.526Z,101549.98
2018-02-04T11:04:00.602Z,101550.05
2018-02-04T11:06:26.394Z,101545.89
2018-02-04T11:08:52.182Z,101553.84
2018-02-04T11:11:17.973Z,101555.52
2018-02-04T11:13:44.226Z,101560.87
2018-02-04T11:16:10.057Z,101559.51
2018-02-04T11:18:35.876Z,101564.63
2018-02-04T11:21:01.620Z,101562.31
2018-02-04T11:23:34.574Z,101571.17
2018-02-04T11:26:00.539Z,101569.64
2018-02-04T11:28:26.330Z,101570.76
2018-02-04T11:30:52.125Z,101572.82
2018-02-04T11:33:17.893Z,101575.64
2018-02-04T11:35:43.675Z,101585.64
2018-02-04T11:38:09.785Z,101584.41
2018-02-04T11:40:35.730Z,101587.28
2018-02-04T11:43:01.501Z,101589.66
2018-02-04T11:45:27.294Z,101590.28
2018-02-04T11:47:53.072Z,101593.22
2018-02-04T11:50:18.871Z,101587.06
2018-02-04T11:52:44.694Z,101584.96
2018-02-04T11:55:10.485Z,101591.58
2018-02-04T11:57:36.647Z,101596.55
2018-02-04T12:00:04.320Z,101597.87
2018-02-04T12:02:30.168Z,101596.08
2018-02-04T12:04:55.971Z,101602.19
2018-02-04T12:07:21.774Z,101607.52
2018-02-04T12:09:47.550Z,101613.77
2018-02-04T12:12:13.313Z,101610.70
2018-02-04T12:14:39.136Z,101618.54
2018-02-04T12:17:04.884Z,101614.03
2018-02-04T12:19:31.024Z,101620.91
2018-02-04T12:21:57.601Z,101620.20
2018-02-04T12:24:23.390Z,101620.00
2018-02-04T12:26:49.190Z,101624.16
2018-02-04T12:29:14.970Z,101625.23
2018-02-04T12:31:40.753Z,101625.94
2018-02-04T12:34:06.545Z,101625.32
2018-02-04T12:36:32.321Z,101635.64
2018-02-04T12:38:59.025Z,101627.75
2018-02-04T12:41:25.077Z,101634.78
2018-02-04T12:43:50.870Z,101641.48
2018-02-04T12:46:16.662Z,101644.27
2018-02-04T12:48:42.460Z,101650.05
2018-02-04T12:51:08.247Z,101658.80
2018-02-04T12:53:34.369Z,101658.94
2018-02-04T12:56:00.183Z,101668.48
2018-02-04T12:58:26.424Z,101666.80
2018-02-04T13:00:52.195Z,101666.52
2018-02-04T13:03:18.326Z,101671.63
2018-02-04T13:05:44.137Z,101669.16
2018-02-04T13:08:09.918Z,101676.25
2018-02-04T13:10:35.699Z,101677.64
2018-02-04T13:13:01.831Z,101677.14
2018-02-04T13:15:27.619Z,101680.03
2018-02-04T13:17:53.469Z,101685.05
2018-02-04T13:20:19.319Z,101689.15
2018-02-04T13:22:45.218Z,101693.50
2018-02-04T13:25:11.005Z,101695.52
2018-02-04T13:27:36.782Z,101703.95
2018-02-04T13:30:02.670Z,101701.53
2018-02-04T13:32:29.100Z,101704.05
2018-02-04T13:34:55.117Z,101712.81
2018-02-04T13:37:20.911Z,101713.08
2018-02-04T13:39:46.774Z,101711.20
2018-02-04T13:42:12.565Z,101714.16
2018-02-04T13:44:38.610Z,101721.80
2018-02-04T13:47:04.375Z,101721.16
2018-02-04T13:49:30.165Z,101727.06
2018-02-04T13:51:56.462Z,101729.22
2018-02-04T13:54:22.285Z,101731.95
2018-02-04T13:56:48.407Z,101738.75
2018-02-04T13:59:14.186Z,101736.45
2018-02-04T14:01:39.953Z,101746.03
2018-02-04T14:04:05.789Z,101751.96
2018-02-04T14:06:31.633Z,101754.09
2018-02-04T14:08:57.417Z,101763.62
2018-02-04T14:11:23.227Z,101759.16
2018-02-04T14:13:48.994Z,101760.11
2018-02-04T14:16:14.781Z,101761.52
2018-02-04T14:18:41.072Z,101770.45
2018-02-04T14:21:06.850Z,101770.61
2018-02-04T14:23:32.627Z,101769.94
2018-02-04T14:25:58.877Z,101773.44
2018-02-04T14:28:24.662Z,101776.80
2018-02-04T14:30:50.433Z,101777.69
2018-02-04T14:33:16.226Z,101781.86
2018-02-04T14:35:42.329Z,101778.40
2018-02-04T14:38:08.136Z,101788.66
2018-02-04T14:40:34.834Z,101784.89
2018-02-04T14:43:00.606Z,101791.00
2018-02-04T14:45:26.517Z,101800.99
2018-02-04T14:47:52.821Z,101807.10
2018-02-04T14:50:18.602Z,101809.83
2018-02-04T14:52:44.485Z,101797.14
2018-02-04T14:55:10.253Z,101808.27
2018-02-04T14:57:36.027Z,101813.58
2018-02-04T15:00:01.867Z,101816.22
2018-02-04T15:02:27.647Z,101814.72
2018-02-04T15:04:53.422Z,101824.73
2018-02-04T15:07:19.206Z,101818.78
2018-02-04T15:09:44.981Z,101824.88
2018-02-04T15:12:10.775Z,101823.73
2018-02-04T15:14:36.549Z,101833.98
2018-02-04T15:17:02.333Z,101843.80
2018-02-04T15:19:28.129Z,101848.23
2018-02-04T15:21:53.907Z,101854.95
2018-02-04T15:24:19.690Z,101858.73
2018-02-04T15:26:45.489Z,101865.36
2018-02-04T15:29:11.263Z,101870.74
2018-02-04T15:31:37.049Z,101873.78
2018-02-04T15:34:02.881Z,101872.98
2018-02-04T15:36:28.703Z,101886.39
2018-02-04T15:38:54.481Z,101882.66
2018-02-04T15:41:20.279Z,101888.41
2018-02-04T15:43:46.055Z,101890.69
2018-02-04T15:46:11.838Z,101894.61
2018-02-04T15:48:37.689Z,101904.94
2018-02-04T15:51:03.485Z,101898.33
2018-02-04T15:53:29.269Z,101918.06
2018-02-04T15:55:55.086Z,101922.19
2018-02-04T15:58:20.886Z,101917.18
2018-02-04T16:00:46.653Z,101927.36
2018-02-04T16:03:12.429Z,101932.19
2018-02-04T16:05:38.238Z,101927.23
2018-02-04T16:08:04.024Z,101929.67
2018-02-04T16:10:29.842Z,101936.13
2018-02-04T16:12:55.650Z,101944.33
2018-02-04T16:15:21.430Z,101947.48
2018-02-04T16:17:47.203Z,101950.39
2018-02-04T16:20:13.219Z,101953.30
2018-02-04T16:22:38.998Z,101957.45
2018-02-04T16:25:04.766Z,101959.17
2018-02-04T16:27:30.561Z,101965.36
2018-02-04T16:29:56.350Z,101967.56
2018-02-04T16:32:22.162Z,101967.02
2018-02-04T16:34:47.954Z,101973.47
2018-02-04T16:37:13.742Z,101976.39
2018-02-04T16:39:40.243Z,101984.94
2018-02-04T16:42:06.045Z,101982.94
2018-02-04T16:44:31.832Z,101984.23
2018-02-04T16:46:57.666Z,101997.58
2018-02-04T16:49:23.795Z,101999.77
2018-02-04T16:51:49.582Z,102005.77
2018-02-04T16:54:15.426Z,102009.23
2018-02-04T16:56:41.241Z,102012.79
2018-02-04T16:59:07.304Z,102009.30
2018-02-04T17:01:33.133Z,102012.23
2018-02-04T17:03:59.111Z,102014.44
2018-02-04T17:06:25.085Z,102020.55
2018-02-04T17:08:51.353Z,102023.30
2018-02-04T17:11:17.153Z,102033.02
2018-02-04T17:13:43.194Z,102039.10
2018-02-04T17:16:09.103Z,102041.38
2018-02-04T17:18:35.162Z,102047.11
2018-02-04T17:21:01.111Z,102046.64
2018-02-04T17:23:27.173Z,102048.42
2018-02-04T17:25:53.015Z,102058.02
2018-02-04T17:28:18.901Z,102060.09
2018-02-04T17:30:44.755Z,102054.77
2018-02-04T17:33:10.562Z,102060.43
2018-02-04T17:35:36.341Z,102071.94
2018-02-04T17:38:02.189Z,102076.96
2018-02-04T17:40:27.998Z,102079.31
2018-02-04T17:42:53.790Z,102075.48
2018-02-04T17:45:20.174Z,102080.06
2018-02-04T17:47:45.961Z,102074.78
2018-02-04T17:50:12.385Z,102084.02
2018-02-04T17:52:38.293Z,102082.33
2018-02-04T17:55:04.405Z,102081.75
2018-02-04T17:57:30.177Z,102083.73
2018-02-04T17:59:56.023Z,102087.69
2018-02-04T18:02:21.810Z,102086.21
2018-02-04T18:04:47.858Z,102090.38
2018-02-04T18:07:13.643Z,102091.77
2018-02-04T18:09:39.834Z,102093.05
2018-02-04T18:12:05.598Z,102100.22
2018-02-04T18:14:31.428Z,102101.40
2018-02-04T18:16:57.220Z,102104.42
2018-02-04T18:19:23.005Z,102108.40
2018-02-04T18:21:49.179Z,102110.41
2018-02-04T18:24:14.972Z,102109.02
2018-02-04T18:26:40.790Z,102116.19
2018-02-04T18:29:06.565Z,102113.20
2018-02-04T18:31:32.655Z,102117.07
2018-02-04T18:33:58.451Z,102124.80
2018-02-04T18:36:24.829Z,102132.02
2018-02-04T18:38:50.901Z,102122.45
2018-02-04T18:41:17.315Z,102137.50
2018-02-04T18:43:43.128Z,102140.75
2018-02-04T18:46:08.958Z,102140.69
2018-02-04T18:48:34.757Z,102142.37
2018-02-04T18:51:00.985Z,102153.32
2018-02-04T18:53:26.800Z,102149.55
2018-02-04T18:55:52.590Z,102153.23
2018-02-04T18:58:18.831Z,102151.12
2018-02-04T19:00:44.797Z,102158.66
2018-02-04T19:03:10.631Z,102164.70
2018-02-04T19:05:36.471Z,102163.55
2018-02-04T19:08:02.287Z,102169.46
2018-02-04T19:10:28.076Z,102173.95
2018-02-04T19:12:53.871Z,102182.02
2018-02-04T19:15:20.010Z,102189.97
2018-02-04T19:17:45.794Z,102191.10
2018-02-04T19:20:11.593Z,102188.94
2018-02-04T19:22:37.538Z,102186.28
2018-02-04T19:25:03.353Z,102194.98
2018-02-04T19:27:29.400Z,102198.36
2018-02-04T19:29:55.182Z,102205.16
2018-02-04T19:32:21.041Z,102205.13
2018-02-04T19:34:47.111Z,102214.34
2018-02-04T19:37:12.895Z,102207.04
2018-02-04T19:39:38.702Z,102221.38
2018-02-04T19:42:04.563Z,102218.38
2018-02-04T19:44:31.315Z,102225.00
2018-02-04T19:46:57.156Z,102233.27
2018-02-04T19:49:22.967Z,102239.16
2018-02-04T19:51:48.754Z,102249.53
2018-02-04T19:54:15.095Z,102252.05
2018-02-04T19:56:40.862Z,102257.23
2018-02-04T19:59:06.662Z,102264.70
2018-02-04T20:01:32.675Z,102263.26
2018-02-04T20:03:58.671Z,102263.20
2018-02-04T20:06:24.556Z,102261.28
2018-02-04T20:08:50.358Z,102260.61
2018-02-04T20:11:16.482Z,102260.45
2018-02-04T20:13:42.274Z,102268.74
2018-02-04T20:16:08.073Z,102266.75
2018-02-04T20:18:33.938Z,102271.28
2018-02-04T20:21:00.249Z,102273.54
2018-02-04T20:23:26.087Z,102273.28
2018-02-04T20:25:51.868Z,102277.62
2018-02-04T20:28:17.844Z,102280.33
2018-02-04T20:30:43.655Z,102277.97
2018-02-04T20:33:28.666Z,102281.00
2018-02-04T20:35:54.472Z,102284.47
2018-02-04T20:38:20.256Z,102284.18
2018-02-04T20:40:53.091Z,102295.08
2018-02-04T20:43:19.090Z,102290.69
2018-02-04T20:45:44.871Z,102292.25
2018-02-04T20:48:10.675Z,102293.89
2018-02-04T20:50:36.842Z,102296.54
2018-02-04T20:53:02.618Z,102299.48
2018-02-04T20:55:28.970Z,102305.05
2018-02-04T20:57:54.754Z,102310.97
2018-02-04T21:00:20.774Z,102307.97
2018-02-04T21:02:46.643Z,102312.18
2018-02-04T21:05:12.590Z,102319.22
2018-02-04T21:07:38.387Z,102312.70
2018-02-04T21:10:04.387Z,102314.18
2018-02-04T21:12:30.210Z,102311.56
2018-02-04T21:14:56.451Z,102317.45
2018-02-04T21:17:22.256Z,102316.66
2018-02-04T21:19:48.022Z,102324.87
2018-02-04T21:22:13.846Z,102322.84
2018-02-04T21:24:39.654Z,102326.02
2018-02-04T21:27:05.447Z,102328.98
2018-02-04T21:29:31.263Z,102331.97
2018-02-04T21:31:57.110Z,102332.45
2018-02-04T21:34:22.910Z,102336.74
2018-02-04T21:36:48.730Z,102330.72
2018-02-04T21:39:15.746Z,102337.66
2018-02-04T21:41:41.514Z,102340.40
2018-02-04T21:44:07.406Z,102347.06
2018-02-04T21:46:33.212Z,102347.94
2018-02-04T21:48:59.267Z,102347.08
2018-02-04T21:51:25.042Z,102346.70
2018-02-04T21:53:50.862Z,102356.84
2018-02-04T21:56:16.692Z,102353.83
2018-02-04T21:58:42.513Z,102348.01
2018-02-04T22:01:08.757Z,102360.94
2018-02-04T22:03:34.591Z,102362.94
2018-02-04T22:06:00.645Z,102356.45
2018-02-04T22:08:26.658Z,102361.23
2018-02-04T22:10:52.430Z,102363.48
2018-02-04T22:13:18.241Z,102371.20
2018-02-04T22:15:44.068Z,102371.67
2018-02-04T22:18:10.329Z,102383.77
2018-02-04T22:20:36.114Z,102371.12
2018-02-04T22:23:02.506Z,102382.45
2018-02-04T22:25:28.304Z,102374.72
2018-02-04T22:27:54.643Z,102379.09
2018-02-04T22:30:20.419Z,102378.21
2018-02-04T22:32:46.622Z,102381.56
2018-02-04T22:35:12.858Z,102380.92
2018-02-04T22:37:38.982Z,102386.11
2018-02-04T22:40:04.797Z,102387.52
2018-02-04T22:42:30.698Z,102385.83
2018-02-04T22:44:56.501Z,102393.31
2018-02-04T22:47:22.287Z,102388.23
2018-02-04T22:49:48.121Z,102396.05
2018-02-04T22:52:13.914Z,102393.66
2018-02-04T22:54:39.735Z,102390.39
2018-02-04T22:57:05.713Z,102397.41
2018-02-04T22:59:31.514Z,102403.06
2018-02-04T23:01:57.484Z,102401.28
2018-02-04T23:04:23.293Z,102404.01
2018-02-04T23:06:49.437Z,102410.19
2018-02-04T23:09:15.207Z,102406.74
2018-02-04T23:11:41.313Z,102411.53
2018-02-04T23:14:07.161Z,102406.58
2018-02-04T23:16:32.966Z,102410.45
2018-02-04T23:18:58.804Z,102405.58
2018-02-04T23:21:24.587Z,102407.13
2018-02-04T23:23:50.909Z,102400.83
2018-02-04T23:26:16.705Z,102403.50
2018-02-04T23:28:42.973Z,102403.61
2018-02-04T23:31:08.746Z,102406.27
2018-02-04T23:33:34.715Z,102408.72
2018-02-04T23:36:00.549Z,102401.11
2018-02-04T23:38:26.856Z,102402.27
2018-02-04T23:40:52.958Z,102404.96
2018-02-04T23:43:18.747Z,102407.13
2018-02-04T23:45:44.537Z,102403.45
2018-02-04T23:48:10.545Z,102408.20
2018-02-04T23:50:36.995Z,102409.08
2018-02-04T23:53:02.831Z,102406.55
2018-02-04T23:55:29.136Z,102407.17
2018-02-04T23:57:54.982Z,102407.49
